sensor_id;sensor_type;location;lat;lon;timestamp;temperature;humidity
16267;DHT22;8241;48.786;9.250;2022-09-03T00:02:20;18.50;93.90
16267;DHT22;8241;48.786;9.250;2022-09-03T00:05:23;18.60;94.10
16267;DHT22;8241;48.786;9.250;2022-09-03T00:07:56;18.60;94.20
16267;DHT22;8241;48.786;9.250;2022-09-03T00:10:31;18.80;94.00
16267;DHT22;8241;48.786;9.250;2022-09-03T00:13:03;18.80;93.70
16267;DHT22;8241;48.786;9.250;2022-09-03T00:15:58;19.00;93.30
16267;DHT22;8241;48.786;9.250;2022-09-03T00:18:30;19.00;93.20
16267;DHT22;8241;48.786;9.250;2022-09-03T00:21:01;19.10;93.20
16267;DHT22;8241;48.786;9.250;2022-09-03T00:23:34;18.90;94.00
16267;DHT22;8241;48.786;9.250;2022-09-03T00:26:16;18.90;94.10
16267;DHT22;8241;48.786;9.250;2022-09-03T00:28:46;18.80;94.50
16267;DHT22;8241;48.786;9.250;2022-09-03T00:31:20;18.70;94.40
16267;DHT22;8241;48.786;9.250;2022-09-03T00:33:54;18.80;94.50
16267;DHT22;8241;48.786;9.250;2022-09-03T00:36:28;18.80;94.50
16267;DHT22;8241;48.786;9.250;2022-09-03T00:39:01;18.80;94.50
16267;DHT22;8241;48.786;9.250;2022-09-03T00:41:34;18.80;94.40
16267;DHT22;8241;48.786;9.250;2022-09-03T00:44:32;18.80;94.50
16267;DHT22;8241;48.786;9.250;2022-09-03T00:47:08;18.70;94.60
16267;DHT22;8241;48.786;9.250;2022-09-03T00:49:45;18.70;95.00
16267;DHT22;8241;48.786;9.250;2022-09-03T00:52:25;18.70;94.80
16267;DHT22;8241;48.786;9.250;2022-09-03T00:55:02;18.70;94.50
16267;DHT22;8241;48.786;9.250;2022-09-03T00:57:40;18.70;94.70
16267;DHT22;8241;48.786;9.250;2022-09-03T01:00:12;18.80;94.40
16267;DHT22;8241;48.786;9.250;2022-09-03T01:02:49;18.90;93.90
16267;DHT22;8241;48.786;9.250;2022-09-03T01:05:27;18.90;93.70
16267;DHT22;8241;48.786;9.250;2022-09-03T01:08:07;18.90;94.00
16267;DHT22;8241;48.786;9.250;2022-09-03T01:10:50;19.00;94.50
16267;DHT22;8241;48.786;9.250;2022-09-03T01:13:21;18.80;94.70
16267;DHT22;8241;48.786;9.250;2022-09-03T01:16:00;18.80;94.70
16267;DHT22;8241;48.786;9.250;2022-09-03T01:18:38;18.90;95.20
16267;DHT22;8241;48.786;9.250;2022-09-03T01:21:42;18.70;95.20
16267;DHT22;8241;48.786;9.250;2022-09-03T01:24:38;18.80;94.70
16267;DHT22;8241;48.786;9.250;2022-09-03T01:27:17;18.80;94.50
16267;DHT22;8241;48.786;9.250;2022-09-03T01:30:03;18.80;94.30
16267;DHT22;8241;48.786;9.250;2022-09-03T01:32:37;18.80;94.60
16267;DHT22;8241;48.786;9.250;2022-09-03T01:35:15;18.80;94.80
16267;DHT22;8241;48.786;9.250;2022-09-03T01:37:58;18.80;94.70
16267;DHT22;8241;48.786;9.250;2022-09-03T01:40:34;18.70;95.10
16267;DHT22;8241;48.786;9.250;2022-09-03T01:43:11;18.80;94.70
16267;DHT22;8241;48.786;9.250;2022-09-03T01:45:48;18.80;94.50
16267;DHT22;8241;48.786;9.250;2022-09-03T01:48:31;18.80;94.50
16267;DHT22;8241;48.786;9.250;2022-09-03T01:51:07;18.90;94.70
16267;DHT22;8241;48.786;9.250;2022-09-03T01:56:49;18.90;94.80
16267;DHT22;8241;48.786;9.250;2022-09-03T01:59:25;18.80;94.90
16267;DHT22;8241;48.786;9.250;2022-09-03T02:01:58;18.80;95.00
16267;DHT22;8241;48.786;9.250;2022-09-03T02:04:32;18.80;95.00
16267;DHT22;8241;48.786;9.250;2022-09-03T02:07:00;18.90;94.40
16267;DHT22;8241;48.786;9.250;2022-09-03T02:09:28;19.00;93.80
16267;DHT22;8241;48.786;9.250;2022-09-03T02:11:58;19.00;93.70
16267;DHT22;8241;48.786;9.250;2022-09-03T02:14:29;19.00;93.60
16267;DHT22;8241;48.786;9.250;2022-09-03T02:17:00;19.10;93.80
16267;DHT22;8241;48.786;9.250;2022-09-03T02:19:29;19.10;93.70
16267;DHT22;8241;48.786;9.250;2022-09-03T02:21:57;19.00;93.70
16267;DHT22;8241;48.786;9.250;2022-09-03T02:24:24;19.00;93.70
16267;DHT22;8241;48.786;9.250;2022-09-03T02:26:52;19.00;93.80
16267;DHT22;8241;48.786;9.250;2022-09-03T02:29:20;19.00;93.70
16267;DHT22;8241;48.786;9.250;2022-09-03T02:31:47;19.00;93.90
16267;DHT22;8241;48.786;9.250;2022-09-03T02:34:15;19.00;93.90
16267;DHT22;8241;48.786;9.250;2022-09-03T02:36:50;19.00;94.20
16267;DHT22;8241;48.786;9.250;2022-09-03T02:39:19;19.00;94.00
16267;DHT22;8241;48.786;9.250;2022-09-03T02:41:50;19.00;93.80
16267;DHT22;8241;48.786;9.250;2022-09-03T02:44:22;19.00;93.80
16267;DHT22;8241;48.786;9.250;2022-09-03T02:46:55;18.80;94.80
16267;DHT22;8241;48.786;9.250;2022-09-03T02:49:31;18.70;94.10
16267;DHT22;8241;48.786;9.250;2022-09-03T02:52:00;18.60;94.10
16267;DHT22;8241;48.786;9.250;2022-09-03T02:54:30;18.60;93.90
16267;DHT22;8241;48.786;9.250;2022-09-03T02:56:57;18.70;94.30
16267;DHT22;8241;48.786;9.250;2022-09-03T02:59:25;18.70;94.50
16267;DHT22;8241;48.786;9.250;2022-09-03T03:01:53;18.70;94.50
16267;DHT22;8241;48.786;9.250;2022-09-03T03:04:20;18.70;94.50
16267;DHT22;8241;48.786;9.250;2022-09-03T03:07:01;18.60;94.80
16267;DHT22;8241;48.786;9.250;2022-09-03T03:09:28;18.70;94.90
16267;DHT22;8241;48.786;9.250;2022-09-03T03:11:55;18.70;94.70
16267;DHT22;8241;48.786;9.250;2022-09-03T03:14:22;18.60;95.00
16267;DHT22;8241;48.786;9.250;2022-09-03T03:19:50;18.60;94.70
16267;DHT22;8241;48.786;9.250;2022-09-03T03:22:19;18.60;94.80
16267;DHT22;8241;48.786;9.250;2022-09-03T03:24:46;18.60;94.70
16267;DHT22;8241;48.786;9.250;2022-09-03T03:27:15;18.60;94.70
16267;DHT22;8241;48.786;9.250;2022-09-03T03:29:43;18.60;94.90
16267;DHT22;8241;48.786;9.250;2022-09-03T03:32:21;18.50;95.10
16267;DHT22;8241;48.786;9.250;2022-09-03T03:34:47;18.60;95.00
16267;DHT22;8241;48.786;9.250;2022-09-03T03:37:14;18.50;95.10
16267;DHT22;8241;48.786;9.250;2022-09-03T03:42:48;18.30;95.60
16267;DHT22;8241;48.786;9.250;2022-09-03T03:45:15;18.30;95.40
16267;DHT22;8241;48.786;9.250;2022-09-03T03:51:30;18.20;95.50
16267;DHT22;8241;48.786;9.250;2022-09-03T03:53:57;18.10;95.30
16267;DHT22;8241;48.786;9.250;2022-09-03T03:56:25;18.20;95.40
16267;DHT22;8241;48.786;9.250;2022-09-03T03:59:04;18.20;95.60
16267;DHT22;8241;48.786;9.250;2022-09-03T04:01:31;18.40;95.00
16267;DHT22;8241;48.786;9.250;2022-09-03T04:03:58;18.30;95.00
16267;DHT22;8241;48.786;9.250;2022-09-03T04:06:25;18.30;95.00
16267;DHT22;8241;48.786;9.250;2022-09-03T04:08:58;18.30;95.20
16267;DHT22;8241;48.786;9.250;2022-09-03T04:11:26;18.20;95.20
16267;DHT22;8241;48.786;9.250;2022-09-03T04:13:53;18.30;95.30
16267;DHT22;8241;48.786;9.250;2022-09-03T04:19:34;18.20;95.30
16267;DHT22;8241;48.786;9.250;2022-09-03T04:22:02;18.20;95.60
16267;DHT22;8241;48.786;9.250;2022-09-03T04:24:29;18.20;95.40
16267;DHT22;8241;48.786;9.250;2022-09-03T04:26:57;18.20;95.60
16267;DHT22;8241;48.786;9.250;2022-09-03T04:29:24;18.20;95.80
16267;DHT22;8241;48.786;9.250;2022-09-03T04:31:50;18.10;95.50
16267;DHT22;8241;48.786;9.250;2022-09-03T04:34:36;18.10;95.90
16267;DHT22;8241;48.786;9.250;2022-09-03T04:37:03;18.00;95.70
16267;DHT22;8241;48.786;9.250;2022-09-03T04:39:30;18.00;96.00
16267;DHT22;8241;48.786;9.250;2022-09-03T04:42:21;18.00;96.10
16267;DHT22;8241;48.786;9.250;2022-09-03T04:44:48;18.00;95.70
16267;DHT22;8241;48.786;9.250;2022-09-03T04:47:15;18.10;95.80
16267;DHT22;8241;48.786;9.250;2022-09-03T04:49:43;18.10;95.80
16267;DHT22;8241;48.786;9.250;2022-09-03T04:52:10;18.10;96.20
16267;DHT22;8241;48.786;9.250;2022-09-03T04:54:37;18.10;95.80
16267;DHT22;8241;48.786;9.250;2022-09-03T04:57:03;18.10;95.80
16267;DHT22;8241;48.786;9.250;2022-09-03T04:59:45;18.00;95.90
16267;DHT22;8241;48.786;9.250;2022-09-03T05:02:12;18.00;95.60
16267;DHT22;8241;48.786;9.250;2022-09-03T05:04:40;18.10;95.70
16267;DHT22;8241;48.786;9.250;2022-09-03T05:07:08;18.10;95.70
16267;DHT22;8241;48.786;9.250;2022-09-03T05:09:35;18.10;95.80
16267;DHT22;8241;48.786;9.250;2022-09-03T05:12:02;18.10;96.20
16267;DHT22;8241;48.786;9.250;2022-09-03T05:14:29;18.10;95.90
16267;DHT22;8241;48.786;9.250;2022-09-03T05:16:56;18.10;95.90
16267;DHT22;8241;48.786;9.250;2022-09-03T05:19:23;17.90;96.40
16267;DHT22;8241;48.786;9.250;2022-09-03T05:21:50;17.90;96.60
16267;DHT22;8241;48.786;9.250;2022-09-03T05:24:18;18.00;96.20
16267;DHT22;8241;48.786;9.250;2022-09-03T05:26:45;17.90;96.40
16267;DHT22;8241;48.786;9.250;2022-09-03T05:29:13;18.00;96.30
16267;DHT22;8241;48.786;9.250;2022-09-03T05:31:40;18.00;96.20
16267;DHT22;8241;48.786;9.250;2022-09-03T05:34:08;18.10;96.10
16267;DHT22;8241;48.786;9.250;2022-09-03T05:36:36;18.10;96.00
16267;DHT22;8241;48.786;9.250;2022-09-03T05:39:04;18.10;95.90
16267;DHT22;8241;48.786;9.250;2022-09-03T05:41:32;18.10;96.00
16267;DHT22;8241;48.786;9.250;2022-09-03T05:43:59;18.10;96.20
16267;DHT22;8241;48.786;9.250;2022-09-03T05:46:28;18.10;96.10
16267;DHT22;8241;48.786;9.250;2022-09-03T05:48:56;18.10;96.40
16267;DHT22;8241;48.786;9.250;2022-09-03T05:51:24;18.20;96.00
16267;DHT22;8241;48.786;9.250;2022-09-03T05:53:51;18.30;96.00
16267;DHT22;8241;48.786;9.250;2022-09-03T05:56:21;18.20;96.40
16267;DHT22;8241;48.786;9.250;2022-09-03T05:58:55;18.20;96.10
16267;DHT22;8241;48.786;9.250;2022-09-03T06:01:25;18.30;96.00
16267;DHT22;8241;48.786;9.250;2022-09-03T06:03:58;18.40;96.10
16267;DHT22;8241;48.786;9.250;2022-09-03T06:06:27;18.40;95.90
16267;DHT22;8241;48.786;9.250;2022-09-03T06:08:56;18.40;95.90
16267;DHT22;8241;48.786;9.250;2022-09-03T06:11:24;18.50;96.00
16267;DHT22;8241;48.786;9.250;2022-09-03T06:13:54;18.50;96.00
16267;DHT22;8241;48.786;9.250;2022-09-03T06:16:21;18.40;96.20
16267;DHT22;8241;48.786;9.250;2022-09-03T06:18:48;18.40;96.10
16267;DHT22;8241;48.786;9.250;2022-09-03T06:21:26;18.40;96.20
16267;DHT22;8241;48.786;9.250;2022-09-03T06:23:55;18.40;96.50
16267;DHT22;8241;48.786;9.250;2022-09-03T06:26:22;18.40;96.40
16267;DHT22;8241;48.786;9.250;2022-09-03T06:28:50;18.40;96.40
16267;DHT22;8241;48.786;9.250;2022-09-03T06:31:22;18.50;96.20
16267;DHT22;8241;48.786;9.250;2022-09-03T06:33:49;18.50;96.30
16267;DHT22;8241;48.786;9.250;2022-09-03T06:36:18;18.50;96.50
16267;DHT22;8241;48.786;9.250;2022-09-03T06:38:46;18.60;96.40
16267;DHT22;8241;48.786;9.250;2022-09-03T06:41:14;18.60;96.50
16267;DHT22;8241;48.786;9.250;2022-09-03T06:43:47;18.60;96.50
16267;DHT22;8241;48.786;9.250;2022-09-03T06:46:15;18.50;96.60
16267;DHT22;8241;48.786;9.250;2022-09-03T06:48:43;18.50;96.80
16267;DHT22;8241;48.786;9.250;2022-09-03T06:51:12;18.60;96.70
16267;DHT22;8241;48.786;9.250;2022-09-03T06:53:40;18.60;96.70
16267;DHT22;8241;48.786;9.250;2022-09-03T06:56:09;18.40;97.00
16267;DHT22;8241;48.786;9.250;2022-09-03T06:58:38;18.50;96.90
16267;DHT22;8241;48.786;9.250;2022-09-03T07:01:10;18.60;96.90
16267;DHT22;8241;48.786;9.250;2022-09-03T07:03:38;18.70;96.70
16267;DHT22;8241;48.786;9.250;2022-09-03T07:06:08;18.70;97.20
16267;DHT22;8241;48.786;9.250;2022-09-03T07:08:37;18.80;96.80
16267;DHT22;8241;48.786;9.250;2022-09-03T07:11:06;18.90;96.40
16267;DHT22;8241;48.786;9.250;2022-09-03T07:13:35;19.00;96.40
16267;DHT22;8241;48.786;9.250;2022-09-03T07:16:05;19.00;96.50
16267;DHT22;8241;48.786;9.250;2022-09-03T07:18:34;19.20;96.30
16267;DHT22;8241;48.786;9.250;2022-09-03T07:21:05;19.20;96.20
16267;DHT22;8241;48.786;9.250;2022-09-03T07:23:35;19.10;96.10
16267;DHT22;8241;48.786;9.250;2022-09-03T07:26:03;19.20;96.30
16267;DHT22;8241;48.786;9.250;2022-09-03T07:28:34;19.20;96.50
16267;DHT22;8241;48.786;9.250;2022-09-03T07:31:03;19.20;96.30
16267;DHT22;8241;48.786;9.250;2022-09-03T07:33:31;19.20;96.30
16267;DHT22;8241;48.786;9.250;2022-09-03T07:36:02;19.10;96.40
16267;DHT22;8241;48.786;9.250;2022-09-03T07:38:33;19.10;96.40
16267;DHT22;8241;48.786;9.250;2022-09-03T07:41:09;19.30;96.40
16267;DHT22;8241;48.786;9.250;2022-09-03T07:43:37;19.40;96.30
16267;DHT22;8241;48.786;9.250;2022-09-03T07:46:10;19.50;96.30
16267;DHT22;8241;48.786;9.250;2022-09-03T07:48:38;19.70;95.90
16267;DHT22;8241;48.786;9.250;2022-09-03T07:51:06;19.90;95.90
16267;DHT22;8241;48.786;9.250;2022-09-03T07:53:35;19.80;95.80
16267;DHT22;8241;48.786;9.250;2022-09-03T07:56:03;19.90;95.90
16267;DHT22;8241;48.786;9.250;2022-09-03T07:58:30;20.20;95.80
16267;DHT22;8241;48.786;9.250;2022-09-03T08:01:02;20.40;95.30
16267;DHT22;8241;48.786;9.250;2022-09-03T08:03:30;20.60;94.80
16267;DHT22;8241;48.786;9.250;2022-09-03T08:06:00;20.50;95.30
16267;DHT22;8241;48.786;9.250;2022-09-03T08:08:27;20.70;95.10
16267;DHT22;8241;48.786;9.250;2022-09-03T08:11:02;20.80;95.00
16267;DHT22;8241;48.786;9.250;2022-09-03T08:13:29;20.90;94.80
16267;DHT22;8241;48.786;9.250;2022-09-03T08:15:56;20.90;94.90
16267;DHT22;8241;48.786;9.250;2022-09-03T08:18:25;20.80;95.50
16267;DHT22;8241;48.786;9.250;2022-09-03T08:20:52;20.80;95.30
16267;DHT22;8241;48.786;9.250;2022-09-03T08:23:20;20.80;95.50
16267;DHT22;8241;48.786;9.250;2022-09-03T08:25:47;20.70;95.70
16267;DHT22;8241;48.786;9.250;2022-09-03T08:28:16;20.60;95.90
16267;DHT22;8241;48.786;9.250;2022-09-03T08:30:43;20.60;96.20
16267;DHT22;8241;48.786;9.250;2022-09-03T08:33:09;20.80;95.60
16267;DHT22;8241;48.786;9.250;2022-09-03T08:35:36;21.00;95.80
16267;DHT22;8241;48.786;9.250;2022-09-03T08:38:03;21.30;95.30
16267;DHT22;8241;48.786;9.250;2022-09-03T08:40:32;21.70;94.90
16267;DHT22;8241;48.786;9.250;2022-09-03T08:43:07;21.70;95.10
16267;DHT22;8241;48.786;9.250;2022-09-03T08:45:38;21.70;95.00
16267;DHT22;8241;48.786;9.250;2022-09-03T08:48:10;21.90;95.20
16267;DHT22;8241;48.786;9.250;2022-09-03T08:50:41;22.20;95.00
16267;DHT22;8241;48.786;9.250;2022-09-03T08:53:14;22.10;94.80
16267;DHT22;8241;48.786;9.250;2022-09-03T08:55:49;22.00;95.10
16267;DHT22;8241;48.786;9.250;2022-09-03T08:58:18;22.00;95.30
16267;DHT22;8241;48.786;9.250;2022-09-03T09:00:54;22.10;95.10
16267;DHT22;8241;48.786;9.250;2022-09-03T09:03:41;22.20;95.00
16267;DHT22;8241;48.786;9.250;2022-09-03T09:06:20;22.20;95.10
16267;DHT22;8241;48.786;9.250;2022-09-03T09:08:57;22.20;95.30
16267;DHT22;8241;48.786;9.250;2022-09-03T09:11:36;22.10;95.30
16267;DHT22;8241;48.786;9.250;2022-09-03T09:14:12;22.10;95.40
16267;DHT22;8241;48.786;9.250;2022-09-03T09:16:50;22.20;95.70
16267;DHT22;8241;48.786;9.250;2022-09-03T09:19:30;22.30;95.20
16267;DHT22;8241;48.786;9.250;2022-09-03T09:22:04;22.20;95.50
16267;DHT22;8241;48.786;9.250;2022-09-03T09:24:37;22.40;95.30
16267;DHT22;8241;48.786;9.250;2022-09-03T09:27:07;22.60;94.60
16267;DHT22;8241;48.786;9.250;2022-09-03T09:29:36;22.50;94.80
16267;DHT22;8241;48.786;9.250;2022-09-03T09:32:08;22.20;94.90
16267;DHT22;8241;48.786;9.250;2022-09-03T09:34:37;21.60;95.40
16267;DHT22;8241;48.786;9.250;2022-09-03T09:37:09;21.60;96.10
16267;DHT22;8241;48.786;9.250;2022-09-03T09:39:38;21.80;96.00
16267;DHT22;8241;48.786;9.250;2022-09-03T09:42:07;22.00;95.80
16267;DHT22;8241;48.786;9.250;2022-09-03T09:44:36;22.00;95.60
16267;DHT22;8241;48.786;9.250;2022-09-03T09:47:07;22.20;95.30
16267;DHT22;8241;48.786;9.250;2022-09-03T09:49:40;22.50;94.90
16267;DHT22;8241;48.786;9.250;2022-09-03T09:52:11;23.30;94.20
16267;DHT22;8241;48.786;9.250;2022-09-03T09:54:40;24.20;93.00
16267;DHT22;8241;48.786;9.250;2022-09-03T09:57:13;24.90;91.70
16267;DHT22;8241;48.786;9.250;2022-09-03T09:59:42;25.10;91.00
16267;DHT22;8241;48.786;9.250;2022-09-03T10:02:16;26.10;90.30
16267;DHT22;8241;48.786;9.250;2022-09-03T10:04:45;26.70;87.80
16267;DHT22;8241;48.786;9.250;2022-09-03T10:07:22;26.40;88.50
16267;DHT22;8241;48.786;9.250;2022-09-03T10:09:58;25.20;90.40
16267;DHT22;8241;48.786;9.250;2022-09-03T10:12:30;24.70;91.40
16267;DHT22;8241;48.786;9.250;2022-09-03T10:15:08;24.40;91.70
16267;DHT22;8241;48.786;9.250;2022-09-03T10:17:46;24.30;92.00
16267;DHT22;8241;48.786;9.250;2022-09-03T10:20:19;24.20;91.90
16267;DHT22;8241;48.786;9.250;2022-09-03T10:23:07;24.00;92.30
16267;DHT22;8241;48.786;9.250;2022-09-03T10:25:56;23.90;92.40
16267;DHT22;8241;48.786;9.250;2022-09-03T10:28:29;24.20;92.30
16267;DHT22;8241;48.786;9.250;2022-09-03T10:34:05;23.60;92.60
16267;DHT22;8241;48.786;9.250;2022-09-03T10:36:38;23.60;93.10
16267;DHT22;8241;48.786;9.250;2022-09-03T10:39:22;23.80;92.80
16267;DHT22;8241;48.786;9.250;2022-09-03T10:42:01;23.00;92.90
16267;DHT22;8241;48.786;9.250;2022-09-03T10:44:39;23.00;93.60
16267;DHT22;8241;48.786;9.250;2022-09-03T10:47:23;23.00;93.20
16267;DHT22;8241;48.786;9.250;2022-09-03T10:50:02;23.00;93.90
16267;DHT22;8241;48.786;9.250;2022-09-03T10:53:03;24.00;92.50
16267;DHT22;8241;48.786;9.250;2022-09-03T10:55:46;24.40;91.80
16267;DHT22;8241;48.786;9.250;2022-09-03T10:58:41;24.80;91.00
16267;DHT22;8241;48.786;9.250;2022-09-03T11:01:17;25.00;91.10
16267;DHT22;8241;48.786;9.250;2022-09-03T11:03:54;25.30;91.10
16267;DHT22;8241;48.786;9.250;2022-09-03T11:06:28;25.30;90.60
16267;DHT22;8241;48.786;9.250;2022-09-03T11:08:58;24.20;91.50
16267;DHT22;8241;48.786;9.250;2022-09-03T11:11:31;23.80;92.10
16267;DHT22;8241;48.786;9.250;2022-09-03T11:14:02;23.70;92.50
16267;DHT22;8241;48.786;9.250;2022-09-03T11:16:42;23.50;92.80
16267;DHT22;8241;48.786;9.250;2022-09-03T11:19:12;23.60;92.80
16267;DHT22;8241;48.786;9.250;2022-09-03T11:21:42;23.30;93.20
16267;DHT22;8241;48.786;9.250;2022-09-03T11:24:12;23.40;93.40
16267;DHT22;8241;48.786;9.250;2022-09-03T11:26:42;23.20;93.40
16267;DHT22;8241;48.786;9.250;2022-09-03T11:29:14;23.20;93.70
16267;DHT22;8241;48.786;9.250;2022-09-03T11:31:52;23.40;93.70
16267;DHT22;8241;48.786;9.250;2022-09-03T11:34:30;23.60;93.50
16267;DHT22;8241;48.786;9.250;2022-09-03T11:37:06;23.80;93.10
16267;DHT22;8241;48.786;9.250;2022-09-03T11:39:41;23.90;92.70
16267;DHT22;8241;48.786;9.250;2022-09-03T11:42:10;23.80;92.70
16267;DHT22;8241;48.786;9.250;2022-09-03T11:44:39;23.80;92.80
16267;DHT22;8241;48.786;9.250;2022-09-03T11:47:15;23.60;93.30
16267;DHT22;8241;48.786;9.250;2022-09-03T11:49:46;23.20;93.80
16267;DHT22;8241;48.786;9.250;2022-09-03T11:52:26;22.90;94.20
16267;DHT22;8241;48.786;9.250;2022-09-03T11:54:54;22.90;94.60
16267;DHT22;8241;48.786;9.250;2022-09-03T11:57:25;22.70;94.40
16267;DHT22;8241;48.786;9.250;2022-09-03T11:59:53;22.70;95.00
16267;DHT22;8241;48.786;9.250;2022-09-03T12:02:26;22.90;94.70
16267;DHT22;8241;48.786;9.250;2022-09-03T12:05:16;23.00;94.40
16267;DHT22;8241;48.786;9.250;2022-09-03T12:08:01;23.10;94.30
16267;DHT22;8241;48.786;9.250;2022-09-03T12:10:48;23.10;94.40
16267;DHT22;8241;48.786;9.250;2022-09-03T12:13:35;22.90;94.50
16267;DHT22;8241;48.786;9.250;2022-09-03T12:19:14;22.80;94.80
16267;DHT22;8241;48.786;9.250;2022-09-03T12:22:05;22.80;95.00
16267;DHT22;8241;48.786;9.250;2022-09-03T12:24:41;22.80;95.20
16267;DHT22;8241;48.786;9.250;2022-09-03T12:27:14;22.70;95.60
16267;DHT22;8241;48.786;9.250;2022-09-03T12:29:51;22.60;96.30
16267;DHT22;8241;48.786;9.250;2022-09-03T12:32:34;22.50;96.90
16267;DHT22;8241;48.786;9.250;2022-09-03T12:35:11;22.50;96.90
16267;DHT22;8241;48.786;9.250;2022-09-03T12:37:40;22.50;97.40
16267;DHT22;8241;48.786;9.250;2022-09-03T12:40:18;22.00;98.50
16267;DHT22;8241;48.786;9.250;2022-09-03T12:42:46;21.50;99.50
16267;DHT22;8241;48.786;9.250;2022-09-03T12:45:14;21.10;99.90
16267;DHT22;8241;48.786;9.250;2022-09-03T12:47:42;20.70;99.90
16267;DHT22;8241;48.786;9.250;2022-09-03T12:50:16;20.40;99.90
16267;DHT22;8241;48.786;9.250;2022-09-03T12:52:47;20.40;99.90
16267;DHT22;8241;48.786;9.250;2022-09-03T12:55:31;20.30;99.90
16267;DHT22;8241;48.786;9.250;2022-09-03T12:58:06;20.20;99.90
16267;DHT22;8241;48.786;9.250;2022-09-03T13:00:42;20.10;99.90
16267;DHT22;8241;48.786;9.250;2022-09-03T13:03:15;19.90;99.90
16267;DHT22;8241;48.786;9.250;2022-09-03T13:05:45;19.80;99.90
16267;DHT22;8241;48.786;9.250;2022-09-03T13:08:18;19.80;99.90
16267;DHT22;8241;48.786;9.250;2022-09-03T13:10:56;19.80;99.90
16267;DHT22;8241;48.786;9.250;2022-09-03T13:13:31;19.70;99.90
16267;DHT22;8241;48.786;9.250;2022-09-03T13:16:32;19.50;99.90
16267;DHT22;8241;48.786;9.250;2022-09-03T13:19:07;19.40;99.90
16267;DHT22;8241;48.786;9.250;2022-09-03T13:21:47;19.30;99.90
16267;DHT22;8241;48.786;9.250;2022-09-03T13:24:27;19.30;99.90
16267;DHT22;8241;48.786;9.250;2022-09-03T13:27:15;19.20;99.90
16267;DHT22;8241;48.786;9.250;2022-09-03T13:29:56;19.10;99.90
16267;DHT22;8241;48.786;9.250;2022-09-03T13:32:35;19.00;99.90
16267;DHT22;8241;48.786;9.250;2022-09-03T13:35:09;19.10;99.90
16267;DHT22;8241;48.786;9.250;2022-09-03T13:37:40;19.00;99.90
16267;DHT22;8241;48.786;9.250;2022-09-03T13:40:13;19.10;99.90
16267;DHT22;8241;48.786;9.250;2022-09-03T13:42:48;19.20;99.90
16267;DHT22;8241;48.786;9.250;2022-09-03T13:45:26;19.40;99.90
16267;DHT22;8241;48.786;9.250;2022-09-03T13:48:09;19.70;99.90
16267;DHT22;8241;48.786;9.250;2022-09-03T13:51:03;20.10;99.90
16267;DHT22;8241;48.786;9.250;2022-09-03T13:53:43;20.10;99.90
16267;DHT22;8241;48.786;9.250;2022-09-03T13:56:20;20.30;99.90
16267;DHT22;8241;48.786;9.250;2022-09-03T13:59:05;20.40;99.90
16267;DHT22;8241;48.786;9.250;2022-09-03T14:01:57;21.00;99.90
16267;DHT22;8241;48.786;9.250;2022-09-03T14:04:32;22.20;99.90
16267;DHT22;8241;48.786;9.250;2022-09-03T14:07:05;23.10;99.90
16267;DHT22;8241;48.786;9.250;2022-09-03T14:09:39;23.20;99.90
16267;DHT22;8241;48.786;9.250;2022-09-03T14:12:18;22.50;99.90
16267;DHT22;8241;48.786;9.250;2022-09-03T14:15:16;22.40;99.90
16267;DHT22;8241;48.786;9.250;2022-09-03T14:17:50;22.30;99.90
16267;DHT22;8241;48.786;9.250;2022-09-03T14:20:27;23.20;99.90
16267;DHT22;8241;48.786;9.250;2022-09-03T14:23:18;23.00;99.90
16267;DHT22;8241;48.786;9.250;2022-09-03T14:26:03;24.60;99.70
16267;DHT22;8241;48.786;9.250;2022-09-03T14:28:34;24.60;98.70
16267;DHT22;8241;48.786;9.250;2022-09-03T14:31:14;24.50;99.20
16267;DHT22;8241;48.786;9.250;2022-09-03T14:34:00;25.40;97.60
16267;DHT22;8241;48.786;9.250;2022-09-03T14:36:36;25.00;97.40
16267;DHT22;8241;48.786;9.250;2022-09-03T14:39:27;24.20;98.80
16267;DHT22;8241;48.786;9.250;2022-09-03T14:42:18;23.10;99.90
16267;DHT22;8241;48.786;9.250;2022-09-03T14:45:17;22.20;99.90
16267;DHT22;8241;48.786;9.250;2022-09-03T14:51:35;21.90;99.90
16267;DHT22;8241;48.786;9.250;2022-09-03T14:54:19;22.70;99.90
16267;DHT22;8241;48.786;9.250;2022-09-03T14:57:01;22.50;99.90
16267;DHT22;8241;48.786;9.250;2022-09-03T15:00:06;21.90;99.90
16267;DHT22;8241;48.786;9.250;2022-09-03T15:02:58;21.70;99.90
16267;DHT22;8241;48.786;9.250;2022-09-03T15:05:53;21.50;99.90
16267;DHT22;8241;48.786;9.250;2022-09-03T15:08:45;21.30;99.90
16267;DHT22;8241;48.786;9.250;2022-09-03T15:11:16;21.30;99.90
16267;DHT22;8241;48.786;9.250;2022-09-03T15:14:09;21.30;99.90
16267;DHT22;8241;48.786;9.250;2022-09-03T15:16:55;21.50;99.90
16267;DHT22;8241;48.786;9.250;2022-09-03T15:19:54;21.80;99.90
16267;DHT22;8241;48.786;9.250;2022-09-03T15:22:56;21.80;99.90
16267;DHT22;8241;48.786;9.250;2022-09-03T15:28:40;22.60;99.90
16267;DHT22;8241;48.786;9.250;2022-09-03T15:31:18;23.20;99.20
16267;DHT22;8241;48.786;9.250;2022-09-03T15:33:51;22.90;99.80
16267;DHT22;8241;48.786;9.250;2022-09-03T15:36:22;22.30;99.90
16267;DHT22;8241;48.786;9.250;2022-09-03T15:38:54;22.00;99.90
16267;DHT22;8241;48.786;9.250;2022-09-03T15:41:36;21.90;99.90
16267;DHT22;8241;48.786;9.250;2022-09-03T15:44:11;21.80;99.90
16267;DHT22;8241;48.786;9.250;2022-09-03T15:46:50;22.00;99.90
16267;DHT22;8241;48.786;9.250;2022-09-03T15:49:30;22.40;99.90
16267;DHT22;8241;48.786;9.250;2022-09-03T15:52:08;22.60;99.90
16267;DHT22;8241;48.786;9.250;2022-09-03T15:54:45;22.80;99.80
16267;DHT22;8241;48.786;9.250;2022-09-03T15:57:20;22.90;99.30
16267;DHT22;8241;48.786;9.250;2022-09-03T15:59:54;23.10;99.60
16267;DHT22;8241;48.786;9.250;2022-09-03T16:02:30;23.20;98.90
16267;DHT22;8241;48.786;9.250;2022-09-03T16:05:08;23.00;98.80
16267;DHT22;8241;48.786;9.250;2022-09-03T16:08:00;22.80;99.80
16267;DHT22;8241;48.786;9.250;2022-09-03T16:10:46;22.70;99.90
16267;DHT22;8241;48.786;9.250;2022-09-03T16:17:12;22.40;99.90
16267;DHT22;8241;48.786;9.250;2022-09-03T16:19:46;22.40;99.90
16267;DHT22;8241;48.786;9.250;2022-09-03T16:22:24;22.40;99.90
16267;DHT22;8241;48.786;9.250;2022-09-03T16:24:54;22.50;99.90
16267;DHT22;8241;48.786;9.250;2022-09-03T16:27:29;22.40;99.90
16267;DHT22;8241;48.786;9.250;2022-09-03T16:30:20;22.30;99.90
16267;DHT22;8241;48.786;9.250;2022-09-03T16:33:00;22.30;99.90
16267;DHT22;8241;48.786;9.250;2022-09-03T16:35:35;22.20;99.90
16267;DHT22;8241;48.786;9.250;2022-09-03T16:38:20;22.10;99.90
16267;DHT22;8241;48.786;9.250;2022-09-03T16:40:55;21.90;99.90
16267;DHT22;8241;48.786;9.250;2022-09-03T16:43:32;21.80;99.90
16267;DHT22;8241;48.786;9.250;2022-09-03T16:46:10;21.80;99.90
16267;DHT22;8241;48.786;9.250;2022-09-03T16:48:47;21.70;99.90
16267;DHT22;8241;48.786;9.250;2022-09-03T16:51:23;21.70;99.90
16267;DHT22;8241;48.786;9.250;2022-09-03T16:54:05;21.60;99.90
16267;DHT22;8241;48.786;9.250;2022-09-03T16:56:47;21.60;99.90
16267;DHT22;8241;48.786;9.250;2022-09-03T16:59:34;21.50;99.90
16267;DHT22;8241;48.786;9.250;2022-09-03T17:02:18;21.40;99.90
16267;DHT22;8241;48.786;9.250;2022-09-03T17:05:03;21.40;99.90